createdAt,value
2022-12-01T00:00:26.573Z,39.22
2022-12-01T00:02:55.870Z,38.05
2022-12-01T00:05:26.523Z,43.13
2022-12-01T00:07:57.361Z,31.10
2022-12-01T00:10:28.722Z,32.92
2022-12-01T00:12:58.689Z,32.05
2022-12-01T00:15:28.574Z,38.38
2022-12-01T00:17:58.311Z,33.20
2022-12-01T00:20:28.792Z,33.85
2022-12-01T00:22:58.143Z,33.53
2022-12-01T00:25:27.911Z,35.83
2022-12-01T00:27:57.437Z,32.17
2022-12-01T00:30:26.734Z,31.70
2022-12-01T00:32:55.947Z,32.30
2022-12-01T00:35:24.930Z,29.67
2022-12-01T00:37:56.611Z,33.00
2022-12-01T00:40:25.836Z,34.78
2022-12-01T00:42:57.288Z,30.50
2022-12-01T00:45:28.559Z,27.80
2022-12-01T00:47:57.814Z,29.98
2022-12-01T00:50:31.154Z,37.42
2022-12-01T00:53:01.905Z,28.17
2022-12-01T00:55:31.424Z,30.30
2022-12-01T00:58:03.663Z,29.48
2022-12-01T01:03:02.296Z,28.98
2022-12-01T01:05:31.824Z,28.13
2022-12-01T01:08:02.422Z,29.35
2022-12-01T01:10:31.945Z,30.92
2022-12-01T01:13:01.232Z,35.67
2022-12-01T01:15:30.873Z,35.03
2022-12-01T01:18:00.178Z,32.60
2022-12-01T01:20:29.368Z,33.65
2022-12-01T01:22:58.885Z,37.00
2022-12-01T01:25:29.955Z,30.27
2022-12-01T01:27:59.304Z,34.50
2022-12-01T01:30:28.490Z,32.00
2022-12-01T01:33:01.122Z,30.23
2022-12-01T01:35:30.138Z,29.63
2022-12-01T01:37:59.493Z,29.40
2022-12-01T01:40:30.381Z,30.48
2022-12-01T01:42:59.522Z,29.88
2022-12-01T01:45:31.078Z,30.10
2022-12-01T01:48:04.585Z,34.65
2022-12-01T01:50:33.958Z,30.40
2022-12-01T01:53:04.892Z,31.17
2022-12-01T01:55:37.159Z,32.90
2022-12-01T01:58:10.360Z,32.17
2022-12-01T02:00:40.212Z,32.28
2022-12-01T02:03:09.861Z,30.02
2022-12-01T02:05:39.886Z,33.67
2022-12-01T02:08:15.069Z,26.30
2022-12-01T02:10:51.770Z,28.25
2022-12-01T02:13:24.271Z,30.30
2022-12-01T02:15:58.375Z,34.83
2022-12-01T02:18:32.179Z,30.30
2022-12-01T02:21:11.448Z,26.83
2022-12-01T02:24:03.457Z,32.72
2022-12-01T02:26:41.050Z,31.80
2022-12-01T02:29:16.096Z,32.10
2022-12-01T02:31:50.680Z,28.10
2022-12-01T02:34:22.915Z,26.67
2022-12-01T02:36:56.427Z,29.08
2022-12-01T02:39:31.249Z,30.50
2022-12-01T02:42:03.739Z,28.30
2022-12-01T02:44:35.598Z,28.60
2022-12-01T02:47:11.812Z,34.25
2022-12-01T02:49:43.452Z,31.42
2022-12-01T02:52:20.944Z,32.08
2022-12-01T02:54:50.976Z,30.88
2022-12-01T02:57:20.724Z,26.98
2022-12-01T02:59:53.415Z,28.23
2022-12-01T03:02:31.119Z,31.77
2022-12-01T03:05:05.715Z,26.58
2022-12-01T03:07:47.643Z,29.75
2022-12-01T03:10:22.034Z,27.55
2022-12-01T03:13:00.461Z,28.85
2022-12-01T03:15:32.946Z,31.00
2022-12-01T03:18:10.637Z,30.65
2022-12-01T03:20:42.500Z,30.52
2022-12-01T03:25:43.998Z,28.67
2022-12-01T03:28:21.276Z,27.63
2022-12-01T03:30:52.502Z,29.30
2022-12-01T03:33:26.295Z,27.27
2022-12-01T03:35:58.290Z,26.15
2022-12-01T03:38:28.369Z,28.13
2022-12-01T03:41:00.161Z,31.80
2022-12-01T03:43:32.248Z,28.17
2022-12-01T03:46:05.932Z,27.63
2022-12-01T03:48:37.038Z,25.83
2022-12-01T03:51:07.706Z,25.40
2022-12-01T03:53:40.788Z,21.77
2022-12-01T03:56:10.819Z,26.15
2022-12-01T03:58:41.067Z,25.08
2022-12-01T04:01:10.968Z,24.30
2022-12-01T04:03:41.696Z,25.23
2022-12-01T04:06:11.029Z,24.13
2022-12-01T04:08:45.100Z,29.13
2022-12-01T04:11:32.969Z,21.38
2022-12-01T04:14:02.906Z,26.17
2022-12-01T04:16:32.610Z,24.40
2022-12-01T04:19:03.129Z,26.00
2022-12-01T04:21:32.336Z,22.90
2022-12-01T04:24:05.366Z,26.73
2022-12-01T04:26:35.448Z,25.13
2022-12-01T04:29:07.598Z,22.35
2022-12-01T04:31:37.346Z,21.20
2022-12-01T04:34:12.117Z,25.48
2022-12-01T04:36:41.247Z,22.08
2022-12-01T04:39:10.363Z,22.67
2022-12-01T04:41:40.146Z,21.98
2022-12-01T04:44:09.317Z,20.42
2022-12-01T04:46:40.158Z,23.40
2022-12-01T04:49:10.996Z,21.85
2022-12-01T04:51:42.470Z,19.27
2022-12-01T04:54:12.004Z,20.77
2022-12-01T04:56:41.287Z,17.52
2022-12-01T04:59:10.990Z,22.45
2022-12-01T05:01:40.499Z,19.95
2022-12-01T05:04:12.721Z,18.75
2022-12-01T05:06:41.778Z,18.58
2022-12-01T05:09:17.155Z,19.20
2022-12-01T05:11:49.893Z,26.27
2022-12-01T05:14:19.367Z,18.90
2022-12-01T05:16:48.733Z,19.50
2022-12-01T05:19:36.966Z,17.15
2022-12-01T05:22:06.381Z,21.63
2022-12-01T05:24:38.626Z,19.23
2022-12-01T05:27:07.935Z,22.27
2022-12-01T05:29:37.294Z,21.77
2022-12-01T05:32:06.521Z,22.83
2022-12-01T05:34:39.886Z,26.08
2022-12-01T05:37:13.075Z,21.60
2022-12-01T05:39:42.229Z,21.35
2022-12-01T05:42:11.276Z,20.83
2022-12-01T05:44:40.833Z,21.00
2022-12-01T05:47:10.088Z,19.60
2022-12-01T05:49:41.202Z,18.35
2022-12-01T05:52:11.089Z,20.70
2022-12-01T05:54:40.517Z,22.85
2022-12-01T05:57:09.802Z,19.20
2022-12-01T05:59:42.405Z,26.33
2022-12-01T06:02:11.955Z,24.20
2022-12-01T06:04:53.778Z,19.08
2022-12-01T06:07:25.655Z,24.85
2022-12-01T06:12:23.940Z,22.73
2022-12-01T06:14:53.315Z,26.70
2022-12-01T06:17:22.719Z,25.90
2022-12-01T06:19:53.130Z,24.90
2022-12-01T06:22:22.099Z,21.42
2022-12-01T06:24:51.461Z,23.25
2022-12-01T06:27:20.638Z,22.35
2022-12-01T06:29:50.515Z,19.48
2022-12-01T06:32:20.185Z,25.10
2022-12-01T06:34:49.309Z,17.70
2022-12-01T06:37:19.964Z,32.13
2022-12-01T06:39:49.239Z,20.77
2022-12-01T06:42:18.400Z,21.83
2022-12-01T06:44:47.686Z,20.77
2022-12-01T06:47:17.390Z,24.90
2022-12-01T06:49:46.454Z,22.15
2022-12-01T06:52:16.075Z,25.95
2022-12-01T06:54:46.724Z,19.63
2022-12-01T06:57:16.633Z,20.97
2022-12-01T06:59:46.368Z,22.92
2022-12-01T07:02:16.927Z,24.83
2022-12-01T07:04:46.207Z,27.67
2022-12-01T07:07:16.040Z,22.00
2022-12-01T07:09:46.634Z,21.52
2022-12-01T07:12:15.903Z,18.75
2022-12-01T07:14:44.993Z,19.95
2022-12-01T07:17:14.212Z,26.17
2022-12-01T07:19:43.465Z,21.77
2022-12-01T07:22:12.559Z,22.45
2022-12-01T07:24:41.798Z,23.70
2022-12-01T07:27:13.820Z,24.48
2022-12-01T07:29:44.870Z,22.85
2022-12-01T07:32:14.663Z,23.10
2022-12-01T07:34:44.230Z,26.95
2022-12-01T07:37:13.662Z,21.90
2022-12-01T07:39:43.226Z,21.15
2022-12-01T07:42:13.898Z,22.00
2022-12-01T07:44:43.290Z,20.23
2022-12-01T07:47:12.365Z,18.75
2022-12-01T07:49:49.391Z,19.88
2022-12-01T07:52:21.722Z,20.67
2022-12-01T07:54:51.791Z,20.50
2022-12-01T07:59:54.330Z,16.20
2022-12-01T08:02:23.636Z,20.05
2022-12-01T08:04:53.114Z,17.48
2022-12-01T08:07:28.509Z,16.98
2022-12-01T08:10:01.632Z,16.50
2022-12-01T08:12:30.779Z,17.58
2022-12-01T08:15:02.687Z,17.67
2022-12-01T08:17:31.839Z,16.92
2022-12-01T08:20:00.996Z,23.40
2022-12-01T08:22:29.939Z,15.93
2022-12-01T08:27:44.312Z,17.98
2022-12-01T08:30:15.868Z,19.90
2022-12-01T08:32:46.358Z,19.58
2022-12-01T08:35:16.814Z,16.80
2022-12-01T08:37:46.010Z,16.00
2022-12-01T08:40:17.699Z,19.45
2022-12-01T08:42:46.840Z,19.60
2022-12-01T08:45:15.922Z,18.35
2022-12-01T08:47:46.485Z,16.45
2022-12-01T08:50:15.784Z,19.40
2022-12-01T08:52:45.696Z,19.52
2022-12-01T08:55:17.740Z,19.15
2022-12-01T08:57:56.003Z,19.10
2022-12-01T09:00:29.355Z,21.48
2022-12-01T09:03:02.534Z,21.42
2022-12-01T09:05:31.801Z,23.05
2022-12-01T09:08:18.549Z,19.77
2022-12-01T09:10:53.421Z,21.52
2022-12-01T09:13:25.328Z,21.83
2022-12-01T09:18:25.383Z,18.88
2022-12-01T09:20:55.031Z,24.05
2022-12-01T09:23:24.206Z,20.38
2022-12-01T09:25:54.621Z,20.73
2022-12-01T09:28:24.438Z,21.40
2022-12-01T09:30:53.964Z,21.45
2022-12-01T09:33:27.051Z,22.98
2022-12-01T09:36:01.161Z,22.23
2022-12-01T09:38:32.823Z,22.55
2022-12-01T09:41:02.930Z,23.25
2022-12-01T09:43:45.757Z,25.08
2022-12-01T09:46:18.170Z,22.95
2022-12-01T09:48:50.466Z,17.40
2022-12-01T09:51:21.004Z,21.30
2022-12-01T09:53:51.934Z,18.08
2022-12-01T09:56:24.365Z,21.80
2022-12-01T09:58:57.516Z,19.92
2022-12-01T10:01:31.634Z,24.33
2022-12-01T10:04:04.291Z,19.30
2022-12-01T10:06:36.597Z,18.15
2022-12-01T10:09:13.681Z,23.85
2022-12-01T10:11:44.697Z,19.42
2022-12-01T10:14:20.132Z,23.77
2022-12-01T10:16:55.042Z,19.58
2022-12-01T10:19:29.499Z,14.85
2022-12-01T10:22:07.826Z,18.50
2022-12-01T10:24:47.548Z,17.77
2022-12-01T10:27:25.480Z,21.55
2022-12-01T10:30:01.335Z,21.13
2022-12-01T10:32:35.976Z,16.92
2022-12-01T10:35:06.981Z,16.73
2022-12-01T10:37:36.476Z,17.70
2022-12-01T10:40:06.767Z,16.40
2022-12-01T10:42:38.169Z,16.10
2022-12-01T10:45:09.266Z,15.88
2022-12-01T10:47:38.796Z,19.07
2022-12-01T10:50:30.002Z,16.35
2022-12-01T10:52:59.301Z,14.52
2022-12-01T10:55:32.046Z,12.23
2022-12-01T10:58:06.207Z,13.32
2022-12-01T11:00:59.202Z,16.90
2022-12-01T11:03:30.548Z,15.85
2022-12-01T11:06:02.563Z,12.52
2022-12-01T11:08:35.913Z,17.48
2022-12-01T11:11:08.766Z,12.50
2022-12-01T11:13:38.615Z,15.75
2022-12-01T11:16:08.442Z,10.48
2022-12-01T11:18:38.226Z,10.85
2022-12-01T11:21:11.645Z,10.63
2022-12-01T11:23:46.400Z,18.10
2022-12-01T11:26:19.211Z,12.55
2022-12-01T11:28:56.845Z,12.80
2022-12-01T11:31:41.685Z,14.20
2022-12-01T11:34:19.411Z,15.05
2022-12-01T11:36:52.813Z,12.30
2022-12-01T11:39:32.030Z,14.75
2022-12-01T11:42:09.605Z,11.07
2022-12-01T11:44:54.267Z,9.77
2022-12-01T11:47:27.456Z,10.57
2022-12-01T11:49:57.893Z,10.38
2022-12-01T11:52:30.162Z,13.00
2022-12-01T11:55:05.541Z,10.20
2022-12-01T11:57:39.870Z,9.63
2022-12-01T12:00:16.463Z,10.90
2022-12-01T12:02:53.623Z,11.88
2022-12-01T12:05:38.086Z,10.88
2022-12-01T12:08:14.159Z,10.98
2022-12-01T12:10:49.137Z,9.98
2022-12-01T12:13:29.894Z,13.00
2022-12-01T12:16:04.191Z,10.90
2022-12-01T12:18:48.519Z,9.85
2022-12-01T12:21:33.967Z,10.25
2022-12-01T12:24:15.003Z,8.48
2022-12-01T12:26:47.126Z,9.93
2022-12-01T12:29:30.531Z,12.70
2022-12-01T12:32:07.482Z,9.48
2022-12-01T12:34:48.693Z,8.52
2022-12-01T12:37:25.007Z,9.85
2022-12-01T12:40:17.752Z,10.40
2022-12-01T12:42:54.589Z,8.25
2022-12-01T12:45:27.958Z,8.93
2022-12-01T12:48:07.604Z,9.65
2022-12-01T12:50:41.294Z,11.23
2022-12-01T12:53:21.240Z,9.50
2022-12-01T12:55:57.644Z,7.10
2022-12-01T12:58:34.201Z,5.13
2022-12-01T13:01:06.134Z,6.25
2022-12-01T13:03:52.281Z,7.55
2022-12-01T13:06:25.301Z,5.78
2022-12-01T13:08:59.158Z,5.60
2022-12-01T13:11:35.878Z,7.50
2022-12-01T13:14:22.457Z,8.55
2022-12-01T13:16:54.071Z,7.43
2022-12-01T13:19:26.182Z,7.10
2022-12-01T13:21:57.427Z,8.60
2022-12-01T13:24:30.746Z,7.83
2022-12-01T13:27:04.998Z,6.18
2022-12-01T13:29:46.114Z,6.93
2022-12-01T13:32:28.448Z,7.25
2022-12-01T13:34:58.908Z,6.47
2022-12-01T13:37:33.803Z,7.10
2022-12-01T13:40:10.914Z,8.32
2022-12-01T13:42:42.228Z,8.48
2022-12-01T13:45:19.258Z,8.00
2022-12-01T13:47:54.377Z,6.38
2022-12-01T13:50:53.701Z,7.00
2022-12-01T13:53:30.101Z,5.95
2022-12-01T13:56:04.989Z,7.13
2022-12-01T13:58:48.386Z,6.80
2022-12-01T14:01:50.813Z,7.50
2022-12-01T14:06:51.726Z,6.13
2022-12-01T14:09:24.591Z,8.50
2022-12-01T14:11:58.175Z,6.55
2022-12-01T14:14:30.002Z,9.13
2022-12-01T14:17:03.827Z,7.45
2022-12-01T14:19:43.633Z,7.32
2022-12-01T14:22:34.262Z,9.98
2022-12-01T14:25:03.930Z,7.82
2022-12-01T14:27:42.330Z,10.80
2022-12-01T14:30:30.041Z,7.20
2022-12-01T14:33:14.441Z,11.15
2022-12-01T14:35:44.428Z,9.00
2022-12-01T14:38:18.949Z,13.55
2022-12-01T14:40:49.391Z,12.52
2022-12-01T14:43:37.261Z,7.78
2022-12-01T14:46:09.624Z,9.82
2022-12-01T14:48:41.380Z,7.57
2022-12-01T14:51:24.555Z,9.32
2022-12-01T14:53:57.589Z,9.95
2022-12-01T14:56:29.436Z,7.22
2022-12-01T14:59:02.832Z,7.90
2022-12-01T15:01:46.914Z,8.80
2022-12-01T15:04:27.728Z,9.50
2022-12-01T15:07:00.993Z,9.63
2022-12-01T15:09:43.666Z,8.80
2022-12-01T15:12:28.063Z,7.40
2022-12-01T15:14:58.175Z,14.95
2022-12-01T15:17:34.668Z,13.77
2022-12-01T15:20:05.651Z,10.65
2022-12-01T15:22:42.206Z,9.43
2022-12-01T15:25:17.428Z,9.90
2022-12-01T15:27:50.399Z,6.75
2022-12-01T15:30:29.952Z,8.45
2022-12-01T15:33:03.925Z,10.40
2022-12-01T15:35:33.695Z,7.75
2022-12-01T15:38:03.694Z,9.77
2022-12-01T15:43:41.926Z,14.23
2022-12-01T15:46:17.666Z,12.95
2022-12-01T15:48:47.398Z,13.25
2022-12-01T15:53:50.283Z,9.43
2022-12-01T15:56:26.990Z,11.70
2022-12-01T15:59:02.130Z,12.55
2022-12-01T16:01:33.220Z,16.75
2022-12-01T16:04:06.229Z,11.57
2022-12-01T16:06:36.848Z,16.10
2022-12-01T16:09:19.709Z,17.25
2022-12-01T16:12:03.797Z,12.60
2022-12-01T16:14:35.543Z,21.90
2022-12-01T16:17:05.963Z,27.92
2022-12-01T16:19:43.802Z,28.77
2022-12-01T16:22:23.641Z,53.03
2022-12-01T16:24:55.201Z,23.90
2022-12-01T16:27:25.783Z,19.08
2022-12-01T16:29:59.791Z,13.68
2022-12-01T16:32:34.449Z,17.98
2022-12-01T16:35:07.960Z,44.83
2022-12-01T16:37:38.556Z,43.38
2022-12-01T16:40:12.818Z,28.10
2022-12-01T16:42:44.289Z,21.58
2022-12-01T16:45:19.092Z,26.60
2022-12-01T16:47:49.746Z,20.83
2022-12-01T16:50:21.533Z,22.85
2022-12-01T16:52:54.631Z,25.87
2022-12-01T16:55:30.486Z,23.67
2022-12-01T16:58:03.244Z,17.63
2022-12-01T17:00:36.313Z,21.85
2022-12-01T17:03:07.085Z,21.48
2022-12-01T17:05:38.328Z,21.33
2022-12-01T17:08:17.723Z,19.67
2022-12-01T17:10:51.710Z,21.60
2022-12-01T17:13:25.776Z,19.92
2022-12-01T17:16:01.143Z,28.02
2022-12-01T17:18:33.319Z,25.05
2022-12-01T17:21:07.673Z,32.28
2022-12-01T17:23:38.927Z,30.30
2022-12-01T17:26:11.762Z,27.85
2022-12-01T17:28:43.946Z,29.58
2022-12-01T17:31:15.926Z,24.73
2022-12-01T17:33:49.435Z,30.80
2022-12-01T17:36:21.103Z,30.60
2022-12-01T17:38:51.254Z,27.02
2022-12-01T17:41:23.972Z,31.27
2022-12-01T17:43:54.366Z,31.85
2022-12-01T17:46:33.177Z,32.88
2022-12-01T17:49:13.317Z,37.20
2022-12-01T17:51:46.832Z,34.55
2022-12-01T17:54:22.414Z,39.00
2022-12-01T17:56:54.465Z,49.50
2022-12-01T17:59:24.719Z,49.55
2022-12-01T18:02:01.197Z,51.20
2022-12-01T18:04:31.982Z,44.25
2022-12-01T18:07:03.147Z,45.15
2022-12-01T18:09:36.494Z,40.42
2022-12-01T18:12:06.761Z,35.28
2022-12-01T18:14:38.608Z,31.27
2022-12-01T18:17:11.312Z,31.05
2022-12-01T18:19:41.072Z,35.80
2022-12-01T18:22:13.182Z,36.03
2022-12-01T18:24:43.345Z,37.85
2022-12-01T18:27:14.863Z,32.10
2022-12-01T18:29:45.043Z,41.88
2022-12-01T18:32:15.532Z,35.17
2022-12-01T18:34:53.743Z,41.20
2022-12-01T18:37:25.438Z,39.80
2022-12-01T18:39:56.552Z,37.03
2022-12-01T18:42:26.023Z,40.63
2022-12-01T18:44:58.291Z,45.35
2022-12-01T18:50:14.443Z,42.00
2022-12-01T18:52:43.780Z,39.00
2022-12-01T18:55:12.977Z,39.00
2022-12-01T18:57:42.148Z,43.83
2022-12-01T19:00:11.779Z,43.35
2022-12-01T19:02:41.104Z,42.20
2022-12-01T19:05:11.118Z,40.60
2022-12-01T19:07:41.526Z,37.40
2022-12-01T19:10:11.003Z,41.47
2022-12-01T19:12:41.269Z,39.17
2022-12-01T19:15:11.163Z,41.45
2022-12-01T19:17:40.553Z,44.85
2022-12-01T19:20:10.144Z,39.38
2022-12-01T19:22:39.187Z,38.55
2022-12-01T19:25:11.584Z,39.97
2022-12-01T19:27:40.802Z,40.47
2022-12-01T19:30:10.379Z,42.13
2022-12-01T19:32:40.102Z,36.38
2022-12-01T19:35:09.523Z,42.40
2022-12-01T19:37:38.546Z,38.58
2022-12-01T19:40:08.282Z,42.80
2022-12-01T19:42:39.042Z,44.40
2022-12-01T19:45:08.938Z,45.03
2022-12-01T19:47:39.441Z,43.50
2022-12-01T19:50:09.084Z,44.35
2022-12-01T19:52:38.934Z,38.58
2022-12-01T19:55:08.400Z,41.17
2022-12-01T19:57:38.986Z,44.53
2022-12-01T20:00:09.004Z,48.97
2022-12-01T20:02:41.138Z,42.92
2022-12-01T20:05:10.515Z,46.75
2022-12-01T20:07:39.584Z,48.60
2022-12-01T20:10:09.135Z,46.15
2022-12-01T20:12:39.701Z,70.70
2022-12-01T20:15:09.261Z,60.60
2022-12-01T20:17:38.251Z,54.33
2022-12-01T20:20:08.180Z,48.92
2022-12-01T20:22:37.633Z,57.72
2022-12-01T20:25:09.223Z,56.13
2022-12-01T20:27:39.751Z,53.45
2022-12-01T20:30:09.483Z,56.47
2022-12-01T20:32:39.747Z,56.07
2022-12-01T20:35:10.002Z,50.45
2022-12-01T20:37:39.159Z,55.10
2022-12-01T20:40:08.902Z,52.83
2022-12-01T20:42:39.686Z,49.08
2022-12-01T20:45:10.636Z,53.42
2022-12-01T20:47:40.451Z,46.45
2022-12-01T20:50:10.020Z,54.05
2022-12-01T20:52:40.846Z,51.42
2022-12-01T20:55:10.500Z,45.58
2022-12-01T20:57:39.546Z,53.42
2022-12-01T21:00:13.163Z,65.05
2022-12-01T21:02:43.693Z,63.05
2022-12-01T21:05:12.802Z,63.38
2022-12-01T21:07:41.887Z,65.80
2022-12-01T21:10:15.677Z,63.03
2022-12-01T21:13:07.712Z,63.83
2022-12-01T21:15:41.542Z,52.55
2022-12-01T21:18:11.479Z,56.03
2022-12-01T21:20:42.901Z,59.60
2022-12-01T21:23:13.015Z,50.63
2022-12-01T21:25:42.713Z,57.80
2022-12-01T21:28:14.945Z,54.55
2022-12-01T21:30:45.591Z,55.42
2022-12-01T22:35:42.258Z,47.10
2022-12-01T22:38:29.581Z,56.58
2022-12-01T22:41:00.024Z,49.30
2022-12-01T22:43:42.957Z,49.72
2022-12-01T22:46:26.990Z,48.92
2022-12-01T22:48:57.135Z,45.28
2022-12-01T22:51:44.235Z,48.05
2022-12-01T22:54:26.152Z,50.15
2022-12-01T22:56:58.361Z,50.75
2022-12-01T22:59:30.136Z,48.03
2022-12-01T23:01:59.940Z,44.42
2022-12-01T23:04:31.219Z,49.08
2022-12-01T23:07:09.644Z,44.25
2022-12-01T23:09:42.141Z,49.78
2022-12-01T23:12:25.965Z,52.00
2022-12-01T23:14:56.654Z,50.00
2022-12-01T23:17:27.067Z,44.63
2022-12-01T23:20:01.542Z,46.45
2022-12-01T23:22:30.700Z,46.47
2022-12-01T23:25:13.900Z,41.42
2022-12-01T23:27:43.196Z,39.80
2022-12-01T23:30:13.370Z,47.55
2022-12-01T23:32:42.877Z,42.88
2022-12-01T23:35:15.542Z,45.55
2022-12-01T23:37:57.352Z,42.28
2022-12-01T23:40:35.431Z,47.65
2022-12-01T23:43:09.288Z,39.10
2022-12-01T23:45:38.455Z,45.45
2022-12-01T23:48:11.588Z,42.72
2022-12-01T23:50:40.711Z,35.70
2022-12-01T23:53:15.673Z,43.35
2022-12-01T23:55:46.060Z,38.22
2022-12-01T23:58:15.452Z,36.22
